Terminal Aerodrome Forecast
Issued by NWS

Home | Current Version | Previous Version | Text Only | Print | Product List | Glossary On
Versions: 1 2 3 4 5 6 7 8 9 10 11 12 13 14 15 16 17 18 19 20 21 22 23 24 25 26 27 28 29 30 31
380
FTUS42 KCAE 292305 AAC
TAFCUB
TAF AMD
KCUB 292305Z 2923/3018 27008KT 6SM -TSRA BR SCT015 BKN035CB OVC080
      TEMPO 2923/3002 VRB30G50KT 1SM +TSRA BR SCT005 BKN015CB OVC030
     FM300400 VRB05KT P6SM VCTS SCT050CB BKN100
     FM301400 26007KT P6SM SCT050=

USA.gov is the U.S. government's official web portal to all federal, state and local government web resources and services.